Time;durP1;ratioP1;P1;durP2;ratioP2;P2;SDS_P1;SDS_P2;PMS_P1;PMS_P2;Temp;Humidity;BMP_temperature;BMP_pressure;BME280_temperature;BME280_humidity;BME280_pressure;Samples;Min_cycle;Max_cycle;Signal;HPM_P1;HPM_P2
2022/01/20 00:02:18;;;;;;;20.23;3.45;;;;;;;;;;5070111;28;20055;-67
2022/01/20 00:04:51;;;;;;;;;;;;;;;;;;5073889;28;20097;-67
2022/01/20 00:26:10;;;;;;;21.65;4.32;;;;;;;;;;5108120;28;20059;-67
2022/01/20 00:38:34;;;;;;;25.67;3.63;;;;;;;;;;5114309;28;20090;-68
2022/01/20 00:41:01;;;;;;;29.63;3.80;;;;;;;;;;5095439;28;20047;-66
2022/01/20 00:43:27;;;;;;;;;;;;;;;;;;5114206;28;20151;-67
2022/01/20 00:45:53;;;;;;;28.48;4.38;;;;;;;;;;5130127;27;19920;-68
2022/01/20 00:48:19;;;;;;;20.27;3.53;;;;;;;;;;5113885;28;20066;-68
2022/01/20 00:50:46;;;;;;;20.30;3.83;;;;;;;;;;5113889;28;20045;-67
2022/01/20 00:53:12;;;;;;;21.75;3.53;;;;;;;;;;5094968;28;20155;-68
2022/01/20 00:55:38;;;;;;;22.02;4.68;;;;;;;;;;5113118;28;20507;-67
2022/01/20 00:58:05;;;;;;;21.42;3.72;;;;;;;;;;5095328;28;20043;-68
2022/01/20 01:00:31;;;;;;;24.10;4.32;;;;;;;;;;5113145;28;20086;-67
2022/01/20 01:02:57;;;;;;;24.45;3.88;;;;;;;;;;5113794;28;20482;-67
2022/01/20 01:06:01;;;;;;;25.58;4.00;;;;;;;;;;5113083;28;20371;-70
2022/01/20 01:08:27;;;;;;;17.73;3.00;;;;;;;;;;5113059;28;20051;-70
2022/01/20 01:10:53;;;;;;;15.13;2.55;;;;;;;;;;5113627;28;20130;-71
2022/01/20 01:13:21;;;;;;;11.65;2.40;;;;;;;;;;5113097;28;20047;-67
2022/01/20 01:15:49;;;;;;;12.10;1.90;;;;;;;;;;5113161;28;20104;-68
2022/01/20 01:23:36;;;;;;;8.43;1.90;;;;;;;;;;5111606;28;20047;-69
2022/01/20 01:26:04;;;;;;;11.18;2.08;;;;;;;;;;5110673;28;20059;-68
2022/01/20 01:28:31;;;;;;;15.23;2.60;;;;;;;;;;5112964;28;20130;-68
2022/01/20 01:33:52;;;;;;;14.13;2.50;;;;;;;;;;5113589;28;20070;-68
2022/01/20 01:36:21;;;;;;;10.25;2.25;;;;;;;;;;5115621;28;20487;-68
2022/01/20 01:38:47;;;;;;;13.20;2.45;;;;;;;;;;5116899;28;20384;-67
2022/01/20 01:41:16;;;;;;;12.45;2.40;;;;;;;;;;5115960;28;20055;-67
2022/01/20 01:43:44;;;;;;;15.40;2.80;;;;;;;;;;5116366;28;20145;-67
2022/01/20 01:46:12;;;;;;;14.95;2.88;;;;;;;;;;5116436;28;20126;-68
2022/01/20 01:48:40;;;;;;;16.05;2.60;;;;;;;;;;5116667;28;20051;-67
2022/01/20 01:51:06;;;;;;;13.55;2.70;;;;;;;;;;5116590;28;20052;-68
2022/01/20 01:53:32;;;;;;;15.35;2.90;;;;;;;;;;5116598;28;20046;-67
2022/01/20 01:55:58;;;;;;;16.42;3.45;;;;;;;;;;5116657;28;20047;-67
2022/01/20 01:58:24;;;;;;;19.13;3.00;;;;;;;;;;5115668;28;20047;-80
2022/01/20 02:00:51;;;;;;;27.92;4.35;;;;;;;;;;5114980;28;20155;-73
2022/01/20 02:03:17;;;;;;;22.52;3.50;;;;;;;;;;5097334;28;20051;-70
2022/01/20 02:08:44;;;;;;;20.38;3.92;;;;;;;;;;5091957;28;20051;-67
2022/01/20 02:19:27;;;;;;;21.02;3.53;;;;;;;;;;5115646;28;20113;-73
2022/01/20 02:21:55;;;;;;;18.05;4.00;;;;;;;;;;5115912;28;20043;-71
2022/01/20 02:24:21;;;;;;;27.00;4.10;;;;;;;;;;5115931;28;20051;-84
2022/01/20 02:26:47;;;;;;;;;;;;;;;;;;5115723;28;20562;-73
2022/01/20 02:29:13;;;;;;;16.92;3.65;;;;;;;;;;5116063;28;19959;-72
2022/01/20 02:31:40;;;;;;;31.45;5.25;;;;;;;;;;5115861;28;20093;-72
2022/01/20 02:34:10;;;;;;;25.98;4.85;;;;;;;;;;5097698;28;20043;-73
2022/01/20 02:36:38;;;;;;;30.98;5.50;;;;;;;;;;5116101;28;20383;-72
2022/01/20 02:39:20;;;;;;;23.20;4.32;;;;;;;;;;5115744;28;20467;-72
2022/01/20 02:47:16;;;;;;;27.23;4.70;;;;;;;;;;5115131;28;20134;-71
2022/01/20 02:49:42;;;;;;;33.47;6.03;;;;;;;;;;5116105;28;20043;-74
2022/01/20 02:52:08;;;;;;;24.75;5.22;;;;;;;;;;5115708;28;20333;-71
2022/01/20 02:54:34;;;;;;;31.13;4.82;;;;;;;;;;5097066;28;20104;-75
2022/01/20 02:57:00;;;;;;;;;;;;;;;;;;5115348;28;20130;-77
2022/01/20 02:59:27;;;;;;;29.08;6.85;;;;;;;;;;5115003;28;19971;-71
2022/01/20 03:01:53;;;;;;;23.90;5.13;;;;;;;;;;5096589;28;20051;-72
2022/01/20 03:04:24;;;;;;;22.27;5.03;;;;;;;;;;5115229;28;20143;-69
2022/01/20 03:06:50;;;;;;;29.02;5.72;;;;;;;;;;5115167;28;20051;-74
2022/01/20 03:09:16;;;;;;;31.52;5.88;;;;;;;;;;5097266;28;20107;-83
2022/01/20 03:11:42;;;;;;;31.60;5.63;;;;;;;;;;5114888;28;20044;-70
2022/01/20 03:14:08;;;;;;;24.60;5.07;;;;;;;;;;5115086;28;20083;-72
2022/01/20 03:16:34;;;;;;;31.80;5.93;;;;;;;;;;5114759;28;20040;-72
2022/01/20 03:19:00;;;;;;;36.17;6.40;;;;;;;;;;5114874;28;20051;-71
2022/01/20 03:21:26;;;;;;;32.38;6.45;;;;;;;;;;5114885;28;20046;-72
2022/01/20 03:23:52;;;;;;;30.17;5.63;;;;;;;;;;5115016;28;20047;-71
2022/01/20 03:26:18;;;;;;;25.00;5.28;;;;;;;;;;5112495;28;20368;-70
2022/01/20 03:28:45;;;;;;;36.05;6.28;;;;;;;;;;5114323;28;20051;-71
2022/01/20 03:31:11;;;;;;;31.58;6.38;;;;;;;;;;5114620;28;20125;-75
2022/01/20 03:33:37;;;;;;;20.33;4.80;;;;;;;;;;5114472;28;20089;-69
2022/01/20 03:36:03;;;;;;;27.15;4.80;;;;;;;;;;5114617;28;20058;-70
2022/01/20 03:38:29;;;;;;;26.30;4.20;;;;;;;;;;5113596;28;20134;-73
2022/01/20 03:40:55;;;;;;;20.55;3.72;;;;;;;;;;5114844;28;20047;-79
2022/01/20 03:43:21;;;;;;;16.70;4.13;;;;;;;;;;5113886;28;20131;-75
2022/01/20 03:45:50;;;;;;;16.38;3.58;;;;;;;;;;5113664;28;20044;-74
2022/01/20 03:48:17;;;;;;;17.85;3.65;;;;;;;;;;5095694;28;20054;-69
2022/01/20 03:51:02;;;;;;;16.33;3.58;;;;;;;;;;5113842;28;20059;-77
2022/01/20 03:53:29;;;;;;;19.83;4.07;;;;;;;;;;5114151;28;20082;-71
2022/01/20 03:55:56;;;;;;;20.02;4.50;;;;;;;;;;5114739;28;20043;-74
2022/01/20 03:58:22;;;;;;;17.50;3.63;;;;;;;;;;5113816;28;20043;-72
2022/01/20 04:00:49;;;;;;;21.05;4.50;;;;;;;;;;5130243;27;20487;-79
2022/01/20 04:03:18;;;;;;;21.02;4.45;;;;;;;;;;5114016;28;20051;-67
2022/01/20 04:05:56;;;;;;;20.90;4.30;;;;;;;;;;5114645;28;20109;-72
2022/01/20 04:08:23;;;;;;;16.52;3.30;;;;;;;;;;5130044;27;20479;-69
2022/01/20 04:10:49;;;;;;;13.50;3.28;;;;;;;;;;5113632;28;20484;-69
2022/01/20 04:13:17;;;;;;;20.63;4.63;;;;;;;;;;5114014;28;20349;-78
2022/01/20 04:15:43;;;;;;;12.02;2.90;;;;;;;;;;5113838;28;20135;-72
2022/01/20 04:18:13;;;;;;;16.40;3.50;;;;;;;;;;5114270;28;20127;-72
2022/01/20 04:20:40;;;;;;;19.25;3.80;;;;;;;;;;5114108;28;20047;-72
2022/01/20 04:23:06;;;;;;;15.73;3.33;;;;;;;;;;5113635;28;20039;-82
2022/01/20 04:25:32;;;;;;;16.75;3.63;;;;;;;;;;5111496;28;20062;-73
2022/01/20 04:27:58;;;;;;;19.67;4.18;;;;;;;;;;5113507;28;20051;-70
2022/01/20 04:30:24;;;;;;;21.38;4.25;;;;;;;;;;5095117;28;20047;-73
2022/01/20 04:32:50;;;;;;;13.38;3.35;;;;;;;;;;5112844;28;20035;-72
2022/01/20 04:35:20;;;;;;;18.15;3.75;;;;;;;;;;5113625;28;20047;-84
2022/01/20 04:37:48;;;;;;;16.55;4.25;;;;;;;;;;5113558;28;20047;-74
2022/01/20 04:40:14;;;;;;;26.60;4.93;;;;;;;;;;5094930;28;20048;-73
2022/01/20 04:42:43;;;;;;;18.35;3.63;;;;;;;;;;5113310;28;20054;-72
2022/01/20 04:45:12;;;;;;;20.27;3.47;;;;;;;;;;5112668;28;20050;-75
2022/01/20 04:58:19;;;;;;;19.23;4.28;;;;;;;;;;5113087;28;20100;-73
2022/01/20 05:00:45;;;;;;;18.50;3.63;;;;;;;;;;5094999;28;20475;-80
2022/01/20 05:03:11;;;;;;;15.30;3.15;;;;;;;;;;5111784;28;20123;-69
2022/01/20 05:05:37;;;;;;;10.65;2.65;;;;;;;;;;5093429;28;20047;-72
2022/01/20 05:08:04;;;;;;;12.25;2.72;;;;;;;;;;5112305;28;20047;-71
2022/01/20 05:10:33;;;;;;;11.93;2.47;;;;;;;;;;5113767;28;20091;-72
2022/01/20 05:15:25;;;;;;;11.60;2.67;;;;;;;;;;5117025;28;20547;-71
2022/01/20 05:17:52;;;;;;;10.00;2.22;;;;;;;;;;5117327;28;20047;-71
2022/01/20 05:20:18;;;;;;;17.10;2.53;;;;;;;;;;5117551;28;20051;-75
2022/01/20 05:22:44;;;;;;;6.80;2.00;;;;;;;;;;5116274;28;20044;-71
2022/01/20 05:25:10;;;;;;;12.75;3.03;;;;;;;;;;5116909;28;20062;-70
2022/01/20 05:27:37;;;;;;;14.00;2.80;;;;;;;;;;5117186;28;20075;-71
2022/01/20 05:30:03;;;;;;;14.05;3.10;;;;;;;;;;5116877;28;20479;-72
2022/01/20 05:32:29;;;;;;;14.35;3.28;;;;;;;;;;5116163;28;20040;-70
2022/01/20 05:34:55;;;;;;;22.33;3.97;;;;;;;;;;5117389;28;20112;-72
2022/01/20 05:37:21;;;;;;;24.63;3.63;;;;;;;;;;5117007;28;20047;-72
2022/01/20 05:39:47;;;;;;;24.35;5.40;;;;;;;;;;5116597;28;20340;-72
2022/01/20 05:42:13;;;;;;;25.17;4.85;;;;;;;;;;5098867;28;20455;-72
2022/01/20 05:44:40;;;;;;;26.65;4.93;;;;;;;;;;5116614;28;20123;-78
2022/01/20 05:47:10;;;;;;;21.83;4.88;;;;;;;;;;5098426;28;20391;-73
2022/01/20 05:49:36;;;;;;;22.42;4.28;;;;;;;;;;5116253;28;20063;-72
2022/01/20 05:52:03;;;;;;;20.88;4.60;;;;;;;;;;5115527;28;20083;-70
2022/01/20 05:54:29;;;;;;;24.58;4.80;;;;;;;;;;5115914;28;20056;-70
2022/01/20 05:56:55;;;;;;;23.30;4.65;;;;;;;;;;5116503;28;20093;-74
2022/01/20 05:59:21;;;;;;;28.20;4.97;;;;;;;;;;5116585;28;20047;-72
2022/01/20 06:01:53;;;;;;;29.42;5.20;;;;;;;;;;5116854;28;20047;-72
2022/01/20 06:04:20;;;;;;;17.38;4.00;;;;;;;;;;5116683;28;20432;-73
2022/01/20 06:06:46;;;;;;;20.33;4.05;;;;;;;;;;5116210;28;20479;-72
2022/01/20 06:09:12;;;;;;;23.65;4.57;;;;;;;;;;5115760;28;20068;-72
2022/01/20 06:11:38;;;;;;;18.90;3.90;;;;;;;;;;5115740;28;20122;-75
2022/01/20 06:14:05;;;;;;;21.92;4.53;;;;;;;;;;5115176;28;20051;-70
2022/01/20 06:16:31;;;;;;;22.13;4.20;;;;;;;;;;5115822;28;20052;-76
2022/01/20 06:18:58;;;;;;;28.07;5.77;;;;;;;;;;5115753;28;20051;-75
2022/01/20 06:21:24;;;;;;;21.50;4.32;;;;;;;;;;5114902;28;20051;-77
2022/01/20 06:23:50;;;;;;;26.17;5.13;;;;;;;;;;5115668;28;20107;-77
2022/01/20 06:26:18;;;;;;;26.70;4.97;;;;;;;;;;5112169;28;20062;-79
2022/01/20 06:28:44;;;;;;;;;;;;;;;;;;5114716;28;20082;-76
2022/01/20 06:31:10;;;;;;;28.63;5.50;;;;;;;;;;5114178;28;20371;-68
2022/01/20 06:33:36;;;;;;;24.55;4.40;;;;;;;;;;5115126;28;20039;-67
2022/01/20 06:36:03;;;;;;;25.02;4.15;;;;;;;;;;5114636;28;20108;-68
2022/01/20 06:38:29;;;;;;;19.60;3.72;;;;;;;;;;5114317;28;20400;-68
2022/01/20 06:40:55;;;;;;;22.40;4.07;;;;;;;;;;5114131;28;20120;-67
2022/01/20 06:43:21;;;;;;;22.80;5.15;;;;;;;;;;5115387;28;20083;-67
2022/01/20 06:45:47;;;;;;;21.27;4.22;;;;;;;;;;5114417;28;20043;-72
2022/01/20 06:48:13;;;;;;;23.80;4.18;;;;;;;;;;5114617;28;20047;-68
2022/01/20 06:50:39;;;;;;;14.13;3.40;;;;;;;;;;5114802;28;20141;-81
2022/01/20 06:53:05;;;;;;;15.10;3.10;;;;;;;;;;5114273;28;20047;-69
2022/01/20 06:55:34;;;;;;;25.67;4.70;;;;;;;;;;5114692;28;20051;-72
2022/01/20 06:58:00;;;;;;;24.90;5.45;;;;;;;;;;5129744;28;20055;-72
2022/01/20 07:00:26;;;;;;;20.65;4.47;;;;;;;;;;5114517;28;20044;-73
2022/01/20 07:02:53;;;;;;;26.73;4.50;;;;;;;;;;5114155;28;20146;-69
2022/01/20 07:05:19;;;;;;;;;;;;;;;;;;5114639;28;20487;-68
2022/01/20 07:07:45;;;;;;;22.53;4.40;;;;;;;;;;5113786;28;20014;-72
2022/01/20 07:10:12;;;;;;;18.20;4.00;;;;;;;;;;5096008;28;20039;-75
2022/01/20 07:12:39;;;;;;;30.03;4.87;;;;;;;;;;5114134;28;20043;-75
2022/01/20 07:15:05;;;;;;;19.08;3.95;;;;;;;;;;5113143;28;20154;-79
2022/01/20 07:17:35;;;;;;;15.98;4.03;;;;;;;;;;5112280;28;20047;-80
2022/01/20 07:20:02;;;;;;;16.73;3.35;;;;;;;;;;5094605;28;20050;-80
2022/01/20 07:22:28;;;;;;;19.63;3.93;;;;;;;;;;5113678;28;20480;-72
2022/01/20 07:24:54;;;;;;;20.00;3.80;;;;;;;;;;5072686;28;1146138;-75
2022/01/20 07:27:20;;;;;;;13.88;3.40;;;;;;;;;;5115025;28;20086;-73
2022/01/20 07:29:46;;;;;;;17.73;4.30;;;;;;;;;;5114287;28;20139;-73
2022/01/20 07:32:13;;;;;;;17.05;4.63;;;;;;;;;;5094700;28;20044;-72
2022/01/20 07:34:39;;;;;;;20.65;4.13;;;;;;;;;;5095501;28;20394;-70
2022/01/20 07:37:05;;;;;;;16.50;3.88;;;;;;;;;;5094722;28;20056;-71
2022/01/20 07:39:31;;;;;;;13.18;3.53;;;;;;;;;;5112305;28;20394;-74
2022/01/20 07:41:57;;;;;;;20.92;3.95;;;;;;;;;;5112854;28;20037;-70
2022/01/20 07:44:24;;;;;;;38.42;5.88;;;;;;;;;;5113495;28;20130;-75
2022/01/20 07:46:50;;;;;;;24.23;4.90;;;;;;;;;;5113438;28;20506;-73
2022/01/20 07:49:16;;;;;;;26.98;4.32;;;;;;;;;;5113181;28;20073;-68
2022/01/20 07:51:43;;;;;;;25.33;4.53;;;;;;;;;;5112321;28;20130;-70
2022/01/20 07:54:10;;;;;;;19.42;3.45;;;;;;;;;;5094281;28;20200;-70
2022/01/20 07:56:36;;;;;;;16.77;3.05;;;;;;;;;;5112379;28;20047;-70
2022/01/20 07:59:03;;;;;;;17.13;3.28;;;;;;;;;;5112022;28;20177;-70
2022/01/20 08:01:29;;;;;;;19.97;3.17;;;;;;;;;;5112222;28;20067;-70
2022/01/20 08:03:57;;;;;;;;;;;;;;;;;;5112418;28;20139;-70
2022/01/20 08:06:23;;;;;;;24.67;4.55;;;;;;;;;;5111910;28;19920;-71
2022/01/20 08:08:50;;;;;;;29.88;5.28;;;;;;;;;;5093638;28;20075;-70
2022/01/20 08:11:17;;;;;;;22.13;4.80;;;;;;;;;;5111561;28;20043;-79
2022/01/20 08:13:43;;;;;;;28.33;5.13;;;;;;;;;;5111843;28;20039;-70
2022/01/20 08:16:09;;;;;;;21.08;4.55;;;;;;;;;;5111459;28;20050;-68
2022/01/20 08:18:35;;;;;;;21.52;5.05;;;;;;;;;;5112006;28;20047;-73
2022/01/20 08:21:02;;;;;;;28.85;5.13;;;;;;;;;;5092786;28;20130;-69
2022/01/20 08:23:28;;;;;;;20.10;4.70;;;;;;;;;;5111338;28;20040;-69
2022/01/20 08:25:54;;;;;;;21.63;3.92;;;;;;;;;;5111503;28;20101;-82
2022/01/20 08:28:22;;;;;;;18.08;3.92;;;;;;;;;;5111087;28;20052;-68
2022/01/20 08:30:48;;;;;;;25.00;3.97;;;;;;;;;;5111256;28;20051;-67
2022/01/20 08:33:14;;;;;;;24.42;4.38;;;;;;;;;;5111388;28;20479;-68
2022/01/20 08:35:40;;;;;;;18.05;3.95;;;;;;;;;;5111303;28;20058;-70
2022/01/20 08:38:07;;;;;;;22.92;4.80;;;;;;;;;;5111277;28;20130;-69
2022/01/20 08:40:34;;;;;;;16.23;4.10;;;;;;;;;;5110887;28;20062;-70
2022/01/20 08:43:00;;;;;;;;;;;;;;;;;;5111071;28;20046;-70
2022/01/20 08:45:28;;;;;;;13.60;2.87;;;;;;;;;;5110539;28;20009;-83
2022/01/20 08:47:55;;;;;;;16.27;3.10;;;;;;;;;;5110511;28;20463;-72
2022/01/20 08:50:22;;;;;;;14.00;3.10;;;;;;;;;;5110748;28;20052;-71
2022/01/20 08:52:48;;;;;;;20.70;3.25;;;;;;;;;;5110095;28;20039;-74
2022/01/20 08:55:15;;;;;;;16.92;3.95;;;;;;;;;;5110417;28;20052;-73
2022/01/20 08:57:41;;;;;;;14.68;2.75;;;;;;;;;;5110366;28;20039;-78
2022/01/20 09:00:07;;;;;;;13.70;2.53;;;;;;;;;;5093368;28;20376;-77
2022/01/20 09:02:33;;;;;;;;;;;;;;;;;;5110403;28;20373;-80
2022/01/20 09:05:00;;;;;;;16.53;3.13;;;;;;;;;;5110934;28;19972;-75
2022/01/20 09:07:27;;;;;;;14.87;2.67;;;;;;;;;;5092581;28;20055;-71
2022/01/20 09:09:55;;;;;;;9.85;2.42;;;;;;;;;;5110435;28;20043;-74
2022/01/20 09:17:44;;;;;;;17.73;3.40;;;;;;;;;;5111005;28;20483;-76
2022/01/20 09:20:11;;;;;;;24.33;3.55;;;;;;;;;;5111465;28;20467;-77
2022/01/20 09:22:38;;;;;;;13.10;3.17;;;;;;;;;;5110698;28;20455;-72
2022/01/20 09:25:05;;;;;;;19.38;3.78;;;;;;;;;;5110356;28;20171;-82
2022/01/20 09:27:31;;;;;;;19.60;3.00;;;;;;;;;;5110656;28;20135;-74
2022/01/20 09:29:57;;;;;;;17.27;3.10;;;;;;;;;;5110825;28;20483;-85
2022/01/20 09:32:26;;;;;;;12.70;3.15;;;;;;;;;;5110453;28;20047;-81
2022/01/20 09:34:52;;;;;;;16.77;3.90;;;;;;;;;;5109379;28;20063;-87
2022/01/20 09:37:19;;;;;;;14.63;2.85;;;;;;;;;;5092535;28;20492;-74
2022/01/20 09:39:45;;;;;;;17.05;3.53;;;;;;;;;;5110950;28;20584;-75
2022/01/20 09:42:11;;;;;;;;;;;;;;;;;;5110657;28;20501;-73
2022/01/20 09:44:44;;;;;;;23.77;4.27;;;;;;;;;;5110926;28;19919;-74
2022/01/20 09:47:10;;;;;;;24.53;4.57;;;;;;;;;;5110748;28;20087;-71
2022/01/20 09:49:37;;;;;;;19.52;3.83;;;;;;;;;;5110878;28;20040;-72
2022/01/20 09:52:03;;;;;;;24.70;4.47;;;;;;;;;;5126331;28;20069;-76
2022/01/20 09:54:29;;;;;;;;;;;;;;;;;;5110930;28;20057;-82
2022/01/20 09:56:57;;;;;;;21.73;3.67;;;;;;;;;;5094983;28;19978;-69
2022/01/20 09:59:24;;;;;;;19.23;3.93;;;;;;;;;;5114565;28;20055;-75
2022/01/20 10:01:57;;;;;;;11.75;2.83;;;;;;;;;;5096111;28;20090;-76
2022/01/20 10:04:25;;;;;;;19.00;4.13;;;;;;;;;;5114415;28;20055;-75
2022/01/20 10:06:57;;;;;;;17.20;3.50;;;;;;;;;;5113186;28;20403;-76
2022/01/20 10:09:30;;;;;;;27.17;4.90;;;;;;;;;;5113750;28;20448;-80
2022/01/20 10:11:57;;;;;;;18.15;3.95;;;;;;;;;;5114154;28;20151;-76
2022/01/20 10:14:23;;;;;;;16.05;2.90;;;;;;;;;;5116011;28;20047;-84
2022/01/20 10:16:49;;;;;;;;;;;;;;;;;;5114418;28;20092;-71
2022/01/20 10:19:22;;;;;;;14.88;3.22;;;;;;;;;;5114582;28;20350;-71
2022/01/20 10:21:48;;;;;;;15.15;3.40;;;;;;;;;;5113894;28;20039;-75
2022/01/20 10:24:16;;;;;;;15.40;2.58;;;;;;;;;;5130177;27;20391;-70
2022/01/20 10:26:42;;;;;;;19.42;3.55;;;;;;;;;;5113871;28;20053;-70
2022/01/20 10:29:10;;;;;;;25.17;4.40;;;;;;;;;;5114136;28;20130;-82
2022/01/20 10:31:40;;;;;;;16.10;3.70;;;;;;;;;;5113312;28;20057;-75
2022/01/20 10:34:08;;;;;;;20.58;4.15;;;;;;;;;;5114149;28;20382;-71
2022/01/20 10:36:40;;;;;;;20.03;3.80;;;;;;;;;;5094792;28;20487;-84
2022/01/20 10:39:06;;;;;;;16.88;3.90;;;;;;;;;;5094450;28;20044;-80
2022/01/20 10:41:32;;;;;;;;;;;;;;;;;;5113149;28;20051;-72
2022/01/20 10:44:06;;;;;;;18.17;3.75;;;;;;;;;;5113049;28;19919;-85
2022/01/20 10:46:42;;;;;;;13.65;2.90;;;;;;;;;;5113374;28;20051;-73
2022/01/20 10:49:09;;;;;;;16.00;3.30;;;;;;;;;;5113624;28;20360;-73
2022/01/20 10:51:35;;;;;;;18.75;3.33;;;;;;;;;;5112851;28;20047;-73
2022/01/20 10:54:02;;;;;;;17.20;2.90;;;;;;;;;;5095184;28;20368;-70
2022/01/20 10:56:29;;;;;;;14.05;2.85;;;;;;;;;;5113323;28;20188;-73
2022/01/20 10:58:55;;;;;;;13.40;3.03;;;;;;;;;;5112996;28;20471;-71
2022/01/20 11:01:24;;;;;;;20.73;3.55;;;;;;;;;;5113204;28;20047;-77
2022/01/20 11:03:50;;;;;;;21.08;4.00;;;;;;;;;;5113152;28;20403;-71
2022/01/20 11:06:17;;;;;;;21.10;4.88;;;;;;;;;;5113245;28;20051;-76
2022/01/20 11:08:44;;;;;;;;;;;;;;;;;;5111906;28;20433;-73
2022/01/20 11:11:10;;;;;;;24.75;5.03;;;;;;;;;;5112848;28;19928;-73
2022/01/20 11:13:37;;;;;;;26.25;4.68;;;;;;;;;;5113102;28;20160;-81
2022/01/20 11:16:03;;;;;;;21.50;4.43;;;;;;;;;;5112982;28;20058;-75
2022/01/20 11:18:30;;;;;;;20.98;4.10;;;;;;;;;;5112339;28;20372;-77
2022/01/20 11:20:57;;;;;;;24.15;4.00;;;;;;;;;;5112596;28;20088;-71
2022/01/20 11:23:23;;;;;;;26.00;4.20;;;;;;;;;;5113155;28;20044;-73
2022/01/20 11:25:49;;;;;;;24.40;5.25;;;;;;;;;;5112214;28;20116;-72
2022/01/20 11:28:23;;;;;;;27.65;4.38;;;;;;;;;;5113117;28;20047;-80
2022/01/20 11:31:06;;;;;;;26.70;4.63;;;;;;;;;;5112930;28;20043;-80
2022/01/20 11:33:37;;;;;;;25.33;4.63;;;;;;;;;;5111993;28;20095;-77
2022/01/20 11:36:05;;;;;;;17.45;3.25;;;;;;;;;;5112452;28;20112;-71
2022/01/20 11:38:38;;;;;;;20.70;4.47;;;;;;;;;;5112947;28;20054;-73
2022/01/20 11:41:05;;;;;;;23.73;4.07;;;;;;;;;;5094010;28;20143;-75
2022/01/20 11:43:38;;;;;;;24.83;4.65;;;;;;;;;;5112364;28;20097;-77
2022/01/20 11:46:16;;;;;;;25.13;5.68;;;;;;;;;;5112627;28;20541;-78
2022/01/20 11:48:53;;;;;;;20.95;4.40;;;;;;;;;;5112750;28;20048;-76
2022/01/20 11:51:20;;;;;;;23.23;4.20;;;;;;;;;;5112482;28;20055;-75
2022/01/20 11:54:04;;;;;;;20.08;4.15;;;;;;;;;;5094775;28;20044;-74
2022/01/20 11:56:35;;;;;;;20.55;4.22;;;;;;;;;;5093330;28;20143;-74
2022/01/20 11:59:01;;;;;;;21.48;3.50;;;;;;;;;;5112013;28;20043;-80
2022/01/20 12:01:30;;;;;;;25.80;4.47;;;;;;;;;;5093898;28;20403;-77
2022/01/20 12:03:56;;;;;;;25.48;4.60;;;;;;;;;;5112368;28;20039;-80
2022/01/20 12:06:23;;;;;;;27.60;5.07;;;;;;;;;;5112318;28;20099;-74
2022/01/20 12:08:54;;;;;;;22.73;4.68;;;;;;;;;;5112321;28;20054;-74
2022/01/20 12:11:22;;;;;;;20.65;4.50;;;;;;;;;;5113253;28;20048;-76
2022/01/20 12:13:49;;;;;;;22.67;4.82;;;;;;;;;;5111988;28;20243;-70
2022/01/20 12:16:19;;;;;;;20.77;4.43;;;;;;;;;;5112207;28;20047;-81
2022/01/20 12:18:52;;;;;;;30.95;4.90;;;;;;;;;;5111519;28;20051;-72
2022/01/20 12:21:18;;;;;;;19.02;4.43;;;;;;;;;;5111926;28;20054;-74
2022/01/20 12:23:45;;;;;;;16.58;3.42;;;;;;;;;;5111679;28;20189;-85
2022/01/20 12:26:11;;;;;;;19.35;4.15;;;;;;;;;;5111353;28;20066;-74
2022/01/20 12:28:37;;;;;;;21.67;4.07;;;;;;;;;;5111841;28;20506;-84
2022/01/20 12:31:04;;;;;;;23.67;4.18;;;;;;;;;;5111706;28;20043;-74
2022/01/20 12:33:32;;;;;;;22.27;4.38;;;;;;;;;;5111432;28;20040;-82
2022/01/20 12:36:05;;;;;;;23.27;4.15;;;;;;;;;;5111072;28;20378;-73
2022/01/20 12:38:35;;;;;;;24.48;4.72;;;;;;;;;;5111112;28;20047;-74
2022/01/20 12:41:13;;;;;;;24.42;4.60;;;;;;;;;;5111444;28;20040;-78
2022/01/20 12:43:41;;;;;;;25.02;3.95;;;;;;;;;;5111158;28;20385;-85
2022/01/20 12:46:08;;;;;;;27.83;5.45;;;;;;;;;;5093809;28;20130;-72
2022/01/20 12:48:34;;;;;;;22.83;4.50;;;;;;;;;;5111416;28;20051;-74
2022/01/20 12:51:02;;;;;;;25.50;4.78;;;;;;;;;;5111595;28;20568;-83
2022/01/20 12:53:32;;;;;;;20.17;4.20;;;;;;;;;;5111247;28;20104;-73
2022/01/20 12:55:59;;;;;;;25.60;4.32;;;;;;;;;;5111253;28;20039;-74
2022/01/20 12:58:25;;;;;;;18.80;3.58;;;;;;;;;;5110834;28;20047;-73
2022/01/20 13:00:58;;;;;;;18.27;3.65;;;;;;;;;;5110599;28;20391;-72
2022/01/20 13:03:33;;;;;;;24.27;4.07;;;;;;;;;;5092757;28;20376;-79
2022/01/20 13:06:00;;;;;;;18.10;3.42;;;;;;;;;;5111241;28;20053;-67
2022/01/20 13:08:31;;;;;;;;;;;;;;;;;;5110317;28;20050;-70
2022/01/20 13:11:04;;;;;;;14.80;2.80;;;;;;;;;;5111544;28;20338;-69
2022/01/20 13:13:31;;;;;;;15.85;2.28;;;;;;;;;;5111435;28;20040;-66
2022/01/20 13:15:57;;;;;;;12.93;2.55;;;;;;;;;;5111679;28;20047;-68
2022/01/20 13:18:23;;;;;;;7.97;1.85;;;;;;;;;;5092918;28;20348;-70
2022/01/20 13:20:58;;;;;;;13.93;2.42;;;;;;;;;;5110905;28;20177;-67
2022/01/20 13:26:02;;;;;;;15.02;2.40;;;;;;;;;;5109108;28;20058;-68
2022/01/20 13:28:29;;;;;;;14.40;2.92;;;;;;;;;;5110393;28;20187;-72
2022/01/20 13:30:55;;;;;;;15.10;2.97;;;;;;;;;;5112118;28;20107;-70
2022/01/20 13:33:22;;;;;;;20.25;4.07;;;;;;;;;;5113488;28;20122;-77
2022/01/20 13:36:00;;;;;;;18.52;2.92;;;;;;;;;;5130361;27;20070;-72
2022/01/20 13:38:38;;;;;;;20.88;3.70;;;;;;;;;;5115590;28;20458;-70
2022/01/20 13:41:09;;;;;;;22.92;4.03;;;;;;;;;;5096153;28;20555;-69
2022/01/20 13:46:40;;;;;;;19.45;3.88;;;;;;;;;;5114373;28;20059;-72
2022/01/20 13:49:06;;;;;;;;;;;;;;;;;;5097183;28;20475;-71
2022/01/20 13:51:32;;;;;;;17.52;3.47;;;;;;;;;;5113653;28;19931;-71
2022/01/20 13:53:58;;;;;;;25.70;3.75;;;;;;;;;;5096182;28;20079;-71
2022/01/20 13:56:24;;;;;;;14.93;3.17;;;;;;;;;;5096033;28;20052;-70
2022/01/20 13:59:01;;;;;;;24.00;3.90;;;;;;;;;;5114396;28;20054;-70
2022/01/20 14:01:28;;;;;;;17.45;4.25;;;;;;;;;;5114341;28;20367;-70
2022/01/20 14:03:54;;;;;;;22.70;3.97;;;;;;;;;;5096385;28;20135;-72
2022/01/20 14:06:21;;;;;;;18.05;4.35;;;;;;;;;;5113749;28;20043;-73
2022/01/20 14:08:48;;;;;;;19.58;4.18;;;;;;;;;;5112787;28;20058;-78
2022/01/20 14:11:14;;;;;;;26.50;4.65;;;;;;;;;;5129027;27;20499;-69
2022/01/20 14:13:40;;;;;;;;;;;;;;;;;;5095929;28;20372;-72
2022/01/20 14:16:07;;;;;;;24.33;5.05;;;;;;;;;;5095832;28;19920;-72
2022/01/20 14:18:41;;;;;;;25.58;4.13;;;;;;;;;;5113320;28;20090;-83
2022/01/20 14:21:08;;;;;;;22.20;5.28;;;;;;;;;;5129515;27;20516;-75
2022/01/20 14:23:34;;;;;;;;;;;;;;;;;;5113874;28;20044;-66
2022/01/20 14:26:05;;;;;;;14.55;3.00;;;;;;;;;;5110834;28;19920;-74
2022/01/20 14:28:31;;;;;;;19.77;3.80;;;;;;;;;;5113330;28;20096;-73
2022/01/20 14:30:57;;;;;;;18.80;3.75;;;;;;;;;;5113505;28;20094;-73
2022/01/20 14:33:24;;;;;;;21.55;4.50;;;;;;;;;;5113434;28;20039;-76
2022/01/20 14:35:50;;;;;;;20.90;3.65;;;;;;;;;;5113570;28;20047;-71
2022/01/20 14:38:17;;;;;;;24.38;5.07;;;;;;;;;;5113637;28;20494;-74
2022/01/20 14:40:43;;;;;;;;;;;;;;;;;;5095112;28;20058;-72
2022/01/20 14:43:09;;;;;;;25.17;4.10;;;;;;;;;;5113165;28;19919;-71
2022/01/20 14:45:35;;;;;;;21.73;4.00;;;;;;;;;;5095809;28;20126;-72
2022/01/20 14:48:01;;;;;;;21.92;4.03;;;;;;;;;;5096090;28;20050;-71
2022/01/20 14:50:28;;;;;;;24.15;3.92;;;;;;;;;;5114137;28;20047;-71
2022/01/20 14:52:55;;;;;;;22.42;4.38;;;;;;;;;;5094787;28;20464;-68
2022/01/20 14:55:21;;;;;;;19.35;3.55;;;;;;;;;;5113185;28;20054;-74
2022/01/20 14:57:47;;;;;;;;;;;;;;;;;;5113438;28;20491;-67
2022/01/20 15:00:15;;;;;;;26.63;5.15;;;;;;;;;;5113694;28;19939;-73
2022/01/20 15:02:45;;;;;;;24.70;4.15;;;;;;;;;;5094986;28;20039;-67
2022/01/20 15:05:12;;;;;;;26.40;5.20;;;;;;;;;;5114005;28;20036;-68
2022/01/20 15:07:39;;;;;;;23.88;5.18;;;;;;;;;;5113718;28;20043;-68
2022/01/20 15:10:15;;;;;;;22.77;4.45;;;;;;;;;;5094944;28;20054;-77
2022/01/20 15:12:42;;;;;;;22.88;4.60;;;;;;;;;;5113359;28;20039;-68
2022/01/20 15:15:09;;;;;;;23.00;5.10;;;;;;;;;;5113630;28;20127;-72
2022/01/20 15:17:35;;;;;;;;;;;;;;;;;;5095216;28;20050;-69
2022/01/20 15:20:01;;;;;;;24.83;5.25;;;;;;;;;;5113166;28;19920;-68
2022/01/20 15:22:27;;;;;;;22.85;3.97;;;;;;;;;;5113214;28;20104;-72
2022/01/20 15:24:54;;;;;;;26.33;4.78;;;;;;;;;;5113153;28;20050;-80
2022/01/20 15:27:20;;;;;;;27.17;4.50;;;;;;;;;;5073909;28;20481;-71
2022/01/20 15:29:46;;;;;;;;;;;;;;;;;;5072278;28;20044;-69
2022/01/20 15:32:12;;;;;;;24.38;4.15;;;;;;;;;;5072015;28;19920;-70
2022/01/20 15:34:39;;;;;;;21.27;4.55;;;;;;;;;;5072082;28;20041;-72
2022/01/20 15:37:05;;;;;;;22.35;4.70;;;;;;;;;;5072199;28;20052;-71
2022/01/20 15:39:31;;;;;;;19.98;4.03;;;;;;;;;;5071255;28;20449;-71
2022/01/20 15:41:57;;;;;;;23.40;5.00;;;;;;;;;;5072436;28;20503;-73
2022/01/20 15:44:24;;;;;;;;;;;;;;;;;;5073212;28;20056;-79
2022/01/20 15:46:51;;;;;;;22.65;5.07;;;;;;;;;;5105278;28;20265;-69
2022/01/20 15:49:16;;;;;;;;;;;;;;;;;;5072734;28;20468;-71
2022/01/20 15:51:43;;;;;;;31.35;4.30;;;;;;;;;;5072346;28;19920;-72
2022/01/20 15:54:09;;;;;;;22.52;4.97;;;;;;;;;;5072389;28;20041;-67
2022/01/20 15:56:35;;;;;;;32.08;6.10;;;;;;;;;;5071706;28;20109;-69
2022/01/20 15:59:04;;;;;;;28.13;4.93;;;;;;;;;;5072843;28;20044;-67